Oberwart, Austria
Current Conditions -  °F | °C
As of 6:20 PM on Friday 21 Nov 2014 (Local Time) from LOWG Reporting Station
Broken Clouds Broken Clouds  
Wind Chill: 45°   Ceiling: 3400
Heat Index: 45°   Visibility: 6mi
Dew Point: 34°   Wind: 2mph
Humidity: 66%   Direction: NA
Pressure: 30.24"   Gusts: NA
Location:  47.29°N, 16.2°E
Report Text: LOWG 211620Z VRB02KT 9999 BKN034 07/01 Q1024 NOSIG
Loading
Personal Weather Stations






























Interactive Weather Map New forecast layout! Learn more

10-Day Weather Forecast

Advertisements
Track Severe Weather on mobile